Time;durP1;ratioP1;P1;durP2;ratioP2;P2;SDS_P1;SDS_P2;PMS_P1;PMS_P2;Temp;Humidity;BMP_temperature;BMP_pressure;BME280_temperature;BME280_humidity;BME280_pressure;Samples;Min_cycle;Max_cycle;Signal;HPM_P1;HPM_P2
2022/07/09 00:00:35;;;;;;;4.57;1.63;;;17.90;99.90;;;;;;5058947;28;20625;-81
2022/07/09 00:03:00;;;;;;;3.53;2.13;;;17.90;99.90;;;;;;5023982;28;20040;-82
2022/07/09 00:05:26;;;;;;;3.13;1.65;;;17.90;99.90;;;;;;5044075;28;20532;-81
2022/07/09 00:07:52;;;;;;;5.15;2.03;;;18.00;99.90;;;;;;5042541;28;20056;-81
2022/07/09 00:10:18;;;;;;;4.50;1.77;;;18.00;99.90;;;;;;5043556;28;20139;-81
2022/07/09 00:12:44;;;;;;;4.07;1.85;;;17.80;99.90;;;;;;5025770;28;20040;-81
2022/07/09 00:15:10;;;;;;;4.20;1.77;;;18.00;99.90;;;;;;5042592;28;20052;-81
2022/07/09 00:17:36;;;;;;;5.68;1.88;;;18.00;99.90;;;;;;5056037;28;20050;-80
2022/07/09 00:20:05;;;;;;;5.53;1.80;;;17.90;99.90;;;;;;5029570;28;20044;-80
2022/07/09 00:22:31;;;;;;;3.88;1.80;;;18.00;99.90;;;;;;5043349;28;20510;-80
2022/07/09 00:24:58;;;;;;;4.25;1.88;;;18.00;99.90;;;;;;5043682;28;20139;-81
2022/07/09 00:27:24;;;;;;;4.85;2.17;;;18.00;99.90;;;;;;5042693;28;20501;-81
2022/07/09 00:29:50;;;;;;;4.07;2.00;;;18.00;99.90;;;;;;5046593;28;20239;-81
2022/07/09 00:32:16;;;;;;;4.93;1.42;;;18.00;99.90;;;;;;5059761;28;20058;-81
2022/07/09 00:34:41;;;;;;;4.90;1.92;;;18.00;99.90;;;;;;5038342;28;20055;-80
2022/07/09 00:37:07;;;;;;;5.10;1.58;;;18.00;99.90;;;;;;5039706;28;20520;-80
2022/07/09 00:39:33;;;;;;;5.75;1.80;;;18.00;99.90;;;;;;5044524;28;20087;-80
2022/07/09 00:42:06;;;;;;;4.22;1.60;;;18.10;99.90;;;;;;5058874;28;20048;-80
2022/07/09 00:44:33;;;;;;;4.00;1.90;;;18.10;99.90;;;;;;5043709;28;21127;-80
2022/07/09 00:46:58;;;;;;;3.00;1.58;;;18.10;99.90;;;;;;5039775;28;20048;-80
2022/07/09 00:49:29;;;;;;;3.83;1.67;;;18.00;99.90;;;;;;5044980;28;20433;-80
2022/07/09 00:51:56;;;;;;;2.72;1.65;;;18.10;99.90;;;;;;5043374;28;20116;-80
2022/07/09 00:54:23;;;;;;;5.15;2.00;;;18.00;99.90;;;;;;5047799;28;20044;-80
2022/07/09 00:56:53;;;;;;;3.50;2.40;;;18.00;99.90;;;;;;5043281;28;20538;-80
2022/07/09 00:59:21;;;;;;;3.47;1.60;;;18.00;99.90;;;;;;5042570;28;20518;-80
2022/07/09 01:01:48;;;;;;;3.55;1.60;;;18.00;99.90;;;;;;5041738;28;20039;-80
2022/07/09 01:04:14;;;;;;;4.03;1.70;;;18.00;99.90;;;;;;5042704;28;20044;-80
2022/07/09 01:06:39;;;;;;;3.58;1.75;;;18.00;99.90;;;;;;5040598;28;20390;-80
2022/07/09 01:09:05;;;;;;;4.28;1.80;;;17.90;99.90;;;;;;5020888;28;20108;-80
2022/07/09 01:11:31;;;;;;;3.83;1.80;;;17.90;99.90;;;;;;5007447;28;20044;-80
2022/07/09 01:13:57;;;;;;;3.97;1.77;;;17.90;99.90;;;;;;5044608;28;20058;-80
2022/07/09 01:16:31;;;;;;;5.32;1.80;;;17.80;99.90;;;;;;5032500;28;20529;-80
2022/07/09 01:18:57;;;;;;;4.68;1.88;;;17.80;99.90;;;;;;5036790;28;20055;-80
2022/07/09 01:21:23;;;;;;;3.70;1.70;;;17.90;99.90;;;;;;5025244;28;20411;-80
2022/07/09 01:23:49;;;;;;;3.67;1.60;;;17.80;99.90;;;;;;5026575;28;20083;-80
2022/07/09 01:26:16;;;;;;;3.75;1.48;;;17.80;99.90;;;;;;5021319;28;20103;-80
2022/07/09 01:28:42;;;;;;;4.43;1.65;;;17.80;99.90;;;;;;5020515;28;20060;-80
2022/07/09 01:31:07;;;;;;;3.63;1.55;;;17.80;99.90;;;;;;5042805;28;20442;-79
2022/07/09 01:33:33;;;;;;;4.15;1.90;;;17.80;99.90;;;;;;5031561;28;20074;-80
2022/07/09 01:35:59;;;;;;;5.10;2.15;;;17.80;99.90;;;;;;5022591;28;20040;-80
2022/07/09 01:38:25;;;;;;;3.22;1.60;;;17.80;99.90;;;;;;5042281;28;20073;-80
2022/07/09 01:40:50;;;;;;;3.60;1.90;;;17.80;99.90;;;;;;5041745;28;20044;-80
2022/07/09 01:43:16;;;;;;;4.68;1.70;;;17.80;99.90;;;;;;5062058;28;20104;-80
2022/07/09 01:45:42;;;;;;;3.58;1.70;;;17.80;99.90;;;;;;5055269;28;20058;-80
2022/07/09 01:48:08;;;;;;;4.00;1.85;;;17.80;99.90;;;;;;5023726;28;20130;-80
2022/07/09 01:50:34;;;;;;;5.72;2.30;;;17.80;99.90;;;;;;5020348;28;20095;-80
2022/07/09 01:52:59;;;;;;;3.35;1.70;;;17.80;99.90;;;;;;5058004;28;20044;-80
2022/07/09 01:55:25;;;;;;;3.58;1.92;;;17.80;99.90;;;;;;5033501;28;20445;-80
2022/07/09 01:57:51;;;;;;;3.63;2.00;;;17.80;99.90;;;;;;5039576;28;20041;-80
2022/07/09 02:00:18;;;;;;;5.43;2.10;;;17.80;99.90;;;;;;5055519;28;20479;-80
2022/07/09 02:02:44;;;;;;;3.83;1.70;;;17.70;99.90;;;;;;5056619;28;20047;-80
2022/07/09 02:05:10;;;;;;;3.63;1.80;;;17.70;99.90;;;;;;5035396;28;20047;-80
2022/07/09 02:07:36;;;;;;;5.63;1.70;;;17.70;99.90;;;;;;5023455;28;20056;-80
2022/07/09 02:10:05;;;;;;;4.05;1.90;;;17.70;99.90;;;;;;5020201;28;20173;-80
2022/07/09 02:12:31;;;;;;;4.78;2.00;;;17.70;99.90;;;;;;5041263;28;20098;-80
2022/07/09 02:14:57;;;;;;;4.43;1.90;;;17.70;99.90;;;;;;5020228;28;20344;-80
2022/07/09 02:17:23;;;;;;;3.63;1.90;;;17.70;99.90;;;;;;5057921;28;20047;-80
2022/07/09 02:19:49;;;;;;;7.20;2.10;;;17.70;99.90;;;;;;5036548;28;20052;-80
2022/07/09 02:22:14;;;;;;;4.10;2.00;;;17.60;99.90;;;;;;5037333;28;20092;-80
2022/07/09 02:24:40;;;;;;;6.78;2.20;;;17.60;99.90;;;;;;5021575;28;20178;-80
2022/07/09 02:27:06;;;;;;;3.90;1.40;;;17.70;99.90;;;;;;5042105;28;20473;-80
2022/07/09 02:29:32;;;;;;;4.03;1.85;;;17.60;99.90;;;;;;5012438;28;20168;-80
2022/07/09 02:31:57;;;;;;;3.47;1.80;;;17.70;99.90;;;;;;5037363;28;20486;-82
2022/07/09 02:34:24;;;;;;;3.85;1.83;;;17.70;99.90;;;;;;5024753;28;20044;-82
2022/07/09 02:36:51;;;;;;;3.53;1.75;;;17.70;99.90;;;;;;5022373;28;20174;-82
2022/07/09 02:39:17;;;;;;;4.20;2.00;;;17.70;99.90;;;;;;5029565;28;20566;-80
2022/07/09 02:41:43;;;;;;;5.47;1.70;;;17.70;99.90;;;;;;5021935;28;20043;-80
2022/07/09 02:44:09;;;;;;;4.57;1.80;;;17.70;99.90;;;;;;5058049;28;20079;-80
2022/07/09 02:46:34;;;;;;;2.90;1.50;;;17.70;99.90;;;;;;5037063;28;20098;-80
2022/07/09 02:49:00;;;;;;;4.13;1.65;;;17.70;99.90;;;;;;5040378;28;20043;-80
2022/07/09 02:51:26;;;;;;;6.25;2.50;;;17.70;99.90;;;;;;5041508;28;20073;-80
2022/07/09 02:53:52;;;;;;;3.00;1.52;;;17.60;99.90;;;;;;5045849;28;20039;-80
2022/07/09 02:56:17;;;;;;;4.20;1.50;;;17.60;99.90;;;;;;5037797;28;20135;-80
2022/07/09 02:58:43;;;;;;;3.88;1.50;;;17.60;99.90;;;;;;5020247;28;20052;-80
2022/07/09 03:01:09;;;;;;;3.22;1.50;;;17.70;99.90;;;;;;5040371;28;20040;-80
2022/07/09 03:03:37;;;;;;;4.45;1.58;;;17.70;99.90;;;;;;5031688;28;20036;-81
2022/07/09 03:06:03;;;;;;;3.13;1.73;;;17.70;99.90;;;;;;5020127;28;20067;-80
2022/07/09 03:08:29;;;;;;;3.88;1.55;;;17.70;99.90;;;;;;5023158;28;20056;-80
2022/07/09 03:10:55;;;;;;;4.45;1.80;;;17.70;99.90;;;;;;5056128;28;20505;-79
2022/07/09 03:13:21;;;;;;;3.60;1.65;;;17.70;99.90;;;;;;5022860;28;20432;-80
2022/07/09 03:15:46;;;;;;;3.20;1.55;;;17.70;99.90;;;;;;5040001;28;20040;-79
2022/07/09 03:18:12;;;;;;;3.50;1.60;;;17.70;99.90;;;;;;5039987;28;20045;-80
2022/07/09 03:20:38;;;;;;;3.67;1.48;;;17.70;99.90;;;;;;5020029;28;20054;-80
2022/07/09 03:23:04;;;;;;;2.67;1.30;;;17.70;99.90;;;;;;5053965;28;20509;-80
2022/07/09 03:25:30;;;;;;;3.50;1.35;;;17.70;99.90;;;;;;5044143;28;20668;-80
2022/07/09 03:27:56;;;;;;;4.47;1.65;;;17.70;99.90;;;;;;5038296;28;20105;-86
2022/07/09 03:30:23;;;;;;;4.07;1.60;;;17.70;99.90;;;;;;5060210;28;20060;-81
2022/07/09 03:32:49;;;;;;;3.83;1.40;;;17.70;99.90;;;;;;5045441;28;20473;-78
2022/07/09 03:35:15;;;;;;;6.18;1.67;;;17.80;99.90;;;;;;5050120;28;20095;-79
2022/07/09 03:37:41;;;;;;;2.40;1.48;;;17.80;99.90;;;;;;5028833;28;20084;-80
2022/07/09 03:40:07;;;;;;;4.68;1.40;;;17.80;99.90;;;;;;5041561;28;20087;-80
2022/07/09 03:42:33;;;;;;;4.18;1.73;;;17.80;99.90;;;;;;5038847;28;20459;-80
2022/07/09 03:44:59;;;;;;;2.72;1.40;;;17.80;99.90;;;;;;5040391;28;20069;-81
2022/07/09 03:47:25;;;;;;;2.78;1.27;;;17.80;99.90;;;;;;5045651;28;20048;-80
2022/07/09 03:49:50;;;;;;;3.58;1.77;;;17.80;99.90;;;;;;5041378;28;20044;-81
2022/07/09 03:52:16;;;;;;;2.65;1.20;;;17.80;99.90;;;;;;5059689;28;20383;-80
2022/07/09 03:54:42;;;;;;;3.47;1.63;;;17.70;99.90;;;;;;5042443;28;20499;-80
2022/07/09 03:57:08;;;;;;;2.70;1.42;;;17.80;99.90;;;;;;5059541;28;20667;-81
2022/07/09 03:59:33;;;;;;;3.55;1.30;;;17.80;99.90;;;;;;5040195;28;20043;-80
2022/07/09 04:01:59;;;;;;;2.92;1.40;;;17.70;99.90;;;;;;5023697;28;20037;-80
2022/07/09 04:04:25;;;;;;;2.80;1.40;;;17.70;99.90;;;;;;5025468;28;20056;-80
2022/07/09 04:06:50;;;;;;;3.38;1.77;;;17.70;99.90;;;;;;5039355;28;20040;-81
2022/07/09 04:09:16;;;;;;;2.95;1.23;;;17.70;99.90;;;;;;5025618;28;20048;-80
2022/07/09 04:11:42;;;;;;;2.33;1.40;;;17.70;99.90;;;;;;5025245;28;20055;-80
2022/07/09 04:14:07;;;;;;;3.53;1.45;;;17.70;99.90;;;;;;5010579;28;20044;-80
2022/07/09 04:16:33;;;;;;;2.72;1.30;;;17.70;99.90;;;;;;5024801;28;20047;-81
2022/07/09 04:18:59;;;;;;;4.45;1.40;;;17.70;99.90;;;;;;5021419;28;20076;-80
2022/07/09 04:21:25;;;;;;;4.18;1.52;;;17.70;99.90;;;;;;5041744;28;20147;-80
2022/07/09 04:23:51;;;;;;;3.22;1.60;;;17.70;99.90;;;;;;5039139;28;20079;-80
2022/07/09 04:26:18;;;;;;;2.95;1.60;;;17.70;99.90;;;;;;5059435;28;20049;-80
2022/07/09 04:28:44;;;;;;;3.47;1.67;;;17.70;99.90;;;;;;5041665;28;20056;-80
2022/07/09 04:31:10;;;;;;;3.03;1.35;;;17.70;99.90;;;;;;5025282;28;20483;-80
2022/07/09 04:33:36;;;;;;;2.50;1.40;;;17.70;99.90;;;;;;5040765;28;20059;-80
2022/07/09 04:36:02;;;;;;;3.75;1.20;;;17.70;99.90;;;;;;5022779;28;20106;-80
2022/07/09 04:38:28;;;;;;;2.95;1.40;;;17.70;99.90;;;;;;5057969;28;20214;-80
2022/07/09 04:40:54;;;;;;;3.72;1.52;;;17.70;99.90;;;;;;5064313;28;20036;-80
2022/07/09 04:43:20;;;;;;;3.03;1.50;;;17.80;99.90;;;;;;5040095;28;20421;-79
2022/07/09 04:45:46;;;;;;;3.83;1.50;;;17.80;99.90;;;;;;5058551;28;20051;-79
2022/07/09 04:48:12;;;;;;;5.50;1.50;;;17.80;99.90;;;;;;5041911;28;20425;-79
2022/07/09 04:50:38;;;;;;;5.65;1.73;;;17.90;99.90;;;;;;5038780;28;20148;-79
2022/07/09 04:53:03;;;;;;;4.70;1.60;;;17.90;99.90;;;;;;5049884;28;20078;-79
2022/07/09 04:55:29;;;;;;;2.97;1.50;;;17.90;99.90;;;;;;5025003;28;20048;-79
2022/07/09 04:57:56;;;;;;;4.18;1.67;;;18.00;99.90;;;;;;5023348;28;20055;-81
2022/07/09 05:00:22;;;;;;;5.18;1.60;;;18.00;99.90;;;;;;5048515;28;20052;-82
2022/07/09 05:02:47;;;;;;;4.70;1.70;;;18.00;99.90;;;;;;5044034;28;20070;-79
2022/07/09 05:05:13;;;;;;;5.20;1.65;;;18.10;99.90;;;;;;5059756;28;20131;-79
2022/07/09 05:07:41;;;;;;;4.90;1.88;;;18.10;99.90;;;;;;5024064;28;20113;-79
2022/07/09 05:10:08;;;;;;;3.17;1.60;;;18.10;99.90;;;;;;5057828;28;20040;-79
2022/07/09 05:12:33;;;;;;;7.18;1.80;;;18.10;99.90;;;;;;5042118;28;20048;-78
2022/07/09 05:14:59;;;;;;;3.65;1.50;;;18.10;99.90;;;;;;5046423;28;20051;-79
2022/07/09 05:17:25;;;;;;;4.00;1.60;;;18.10;99.90;;;;;;5030223;28;20036;-79
2022/07/09 05:19:51;;;;;;;9.60;1.98;;;18.60;99.90;;;;;;5053479;28;20051;-79
2022/07/09 05:22:16;;;;;;;3.95;1.63;;;18.20;99.90;;;;;;5021364;28;21360;-80
2022/07/09 05:24:42;;;;;;;3.03;1.55;;;18.20;99.90;;;;;;5056012;28;20135;-79
2022/07/09 05:27:09;;;;;;;3.67;1.52;;;18.20;99.90;;;;;;5042602;28;20056;-79
2022/07/09 05:29:36;;;;;;;6.13;1.77;;;18.20;99.90;;;;;;5057386;28;20466;-80
2022/07/09 05:32:02;;;;;;;5.45;1.70;;;18.20;99.90;;;;;;5058534;28;20090;-80
2022/07/09 05:34:28;;;;;;;4.28;1.85;;;18.20;99.90;;;;;;5040528;28;20399;-80
2022/07/09 05:36:57;;;;;;;9.05;2.22;;;18.10;99.90;;;;;;5057511;28;20044;-79
2022/07/09 05:39:23;;;;;;;3.15;1.25;;;18.10;99.90;;;;;;5041435;28;20051;-78
2022/07/09 05:41:49;;;;;;;3.63;1.50;;;18.10;99.90;;;;;;5058298;28;20059;-78
2022/07/09 05:44:15;;;;;;;4.57;1.42;;;18.20;99.90;;;;;;5041122;28;20095;-78
2022/07/09 05:46:41;;;;;;;4.05;1.42;;;18.20;99.90;;;;;;5057721;28;20043;-79
2022/07/09 05:49:07;;;;;;;4.32;1.48;;;18.20;99.90;;;;;;5040278;28;20182;-80
2022/07/09 05:51:33;;;;;;;2.92;1.40;;;18.10;99.90;;;;;;5059347;28;20126;-81
2022/07/09 05:53:59;;;;;;;2.92;1.30;;;18.20;99.90;;;;;;5036357;28;20722;-80
2022/07/09 05:56:25;;;;;;;5.95;1.50;;;18.30;99.90;;;;;;5029723;28;20403;-80
2022/07/09 05:58:51;;;;;;;4.15;1.60;;;18.30;99.90;;;;;;5008198;28;20048;-80
2022/07/09 06:01:17;;;;;;;4.75;1.50;;;18.30;99.90;;;;;;5037733;28;20372;-80
2022/07/09 06:03:43;;;;;;;6.30;1.95;;;18.30;99.90;;;;;;5057697;28;20051;-80
2022/07/09 06:06:09;;;;;;;4.28;1.40;;;18.30;99.90;;;;;;5021582;28;20044;-80
2022/07/09 06:08:35;;;;;;;4.22;1.42;;;18.30;99.90;;;;;;5046995;28;20052;-82
2022/07/09 06:11:02;;;;;;;4.43;1.63;;;18.30;99.90;;;;;;5036824;28;20086;-78
2022/07/09 06:13:28;;;;;;;3.65;1.40;;;18.30;99.90;;;;;;5040297;28;20040;-79
2022/07/09 06:15:55;;;;;;;4.90;1.40;;;18.30;99.90;;;;;;5036202;28;20485;-81
2022/07/09 06:18:22;;;;;;;5.97;1.70;;;18.30;99.90;;;;;;5036090;28;20052;-81
2022/07/09 06:20:48;;;;;;;4.78;1.27;;;18.40;99.90;;;;;;5046384;28;20062;-80
2022/07/09 06:23:14;;;;;;;4.22;1.20;;;18.40;99.90;;;;;;5058957;28;20486;-80
2022/07/09 06:25:40;;;;;;;5.22;1.45;;;18.50;99.90;;;;;;5043828;28;20090;-80
2022/07/09 06:28:06;;;;;;;11.55;1.65;;;18.50;99.90;;;;;;5030617;28;20117;-80
2022/07/09 06:30:33;;;;;;;5.35;1.63;;;18.50;99.90;;;;;;5035169;28;20052;-80
2022/07/09 06:32:59;;;;;;;5.18;1.30;;;18.60;99.90;;;;;;5037013;28;20040;-80
2022/07/09 06:35:25;;;;;;;4.25;1.27;;;18.60;99.90;;;;;;5040480;28;20048;-80
2022/07/09 06:37:51;;;;;;;5.22;1.35;;;18.70;99.90;;;;;;5024642;28;20563;-79
2022/07/09 06:40:17;;;;;;;5.13;1.45;;;18.70;99.90;;;;;;5040017;28;20056;-80
2022/07/09 06:42:42;;;;;;;3.63;1.40;;;18.70;99.90;;;;;;5045708;28;20115;-79
2022/07/09 06:45:09;;;;;;;4.32;1.30;;;18.70;99.90;;;;;;5040455;28;20452;-79
2022/07/09 06:47:35;;;;;;;4.40;1.45;;;18.70;99.90;;;;;;5051455;28;20110;-79
2022/07/09 06:50:00;;;;;;;5.82;1.30;;;18.70;99.90;;;;;;5043063;28;20040;-79
2022/07/09 06:52:27;;;;;;;4.85;1.40;;;18.70;99.90;;;;;;5038914;28;20054;-81
2022/07/09 06:54:53;;;;;;;4.63;1.30;;;18.80;99.90;;;;;;5056271;28;20058;-78
2022/07/09 06:57:19;;;;;;;4.30;1.30;;;18.80;99.90;;;;;;5019326;28;20047;-79
2022/07/09 06:59:45;;;;;;;5.68;1.38;;;18.80;99.90;;;;;;5039315;28;20056;-79
2022/07/09 07:02:12;;;;;;;6.68;1.42;;;18.80;99.90;;;;;;5040517;28;20092;-79
2022/07/09 07:04:38;;;;;;;2.95;1.25;;;18.70;99.90;;;;;;5050148;28;20098;-79
2022/07/09 07:07:04;;;;;;;7.93;1.73;;;18.70;99.90;;;;;;5024974;28;20051;-79
2022/07/09 07:09:30;;;;;;;5.15;1.50;;;18.80;99.90;;;;;;5023803;28;20052;-79
2022/07/09 07:11:57;;;;;;;3.53;1.27;;;18.80;99.90;;;;;;5057801;28;20542;-79
2022/07/09 07:14:23;;;;;;;6.03;1.40;;;18.80;99.90;;;;;;5040136;28;20055;-79
2022/07/09 07:16:48;;;;;;;9.63;2.88;;;18.80;99.90;;;;;;5040957;28;20043;-79
2022/07/09 07:19:14;;;;;;;6.38;1.50;;;18.90;99.90;;;;;;5031598;28;20052;-79
2022/07/09 07:21:40;;;;;;;5.95;1.83;;;18.80;99.90;;;;;;5060922;28;20181;-79
2022/07/09 07:24:07;;;;;;;6.60;1.77;;;18.80;99.90;;;;;;5060599;28;20040;-78
2022/07/09 07:26:33;;;;;;;6.15;1.50;;;18.80;99.90;;;;;;5061021;28;20048;-80
2022/07/09 07:28:59;;;;;;;4.90;1.30;;;18.90;99.90;;;;;;5060098;28;20048;-80
2022/07/09 07:31:25;;;;;;;4.93;1.73;;;19.00;99.90;;;;;;5061925;28;20056;-79
2022/07/09 07:33:51;;;;;;;4.47;1.30;;;19.20;99.90;;;;;;5047000;28;20036;-79
2022/07/09 07:36:17;;;;;;;5.47;1.60;;;19.30;99.90;;;;;;5029577;28;20399;-79
2022/07/09 07:38:45;;;;;;;6.47;1.88;;;19.30;99.90;;;;;;5038920;28;20056;-79
2022/07/09 07:41:11;;;;;;;5.25;1.70;;;19.40;99.90;;;;;;5046621;28;20098;-79
2022/07/09 07:43:37;;;;;;;4.32;1.40;;;19.50;99.90;;;;;;5061937;28;20074;-80
2022/07/09 07:46:03;;;;;;;4.47;1.48;;;19.60;99.90;;;;;;5059098;28;20196;-80
2022/07/09 07:48:30;;;;;;;6.63;1.88;;;19.70;99.90;;;;;;5039942;28;20472;-80
2022/07/09 07:50:56;;;;;;;4.78;1.38;;;19.70;99.90;;;;;;5056916;28;20163;-80
2022/07/09 07:53:22;;;;;;;5.55;1.40;;;19.70;99.90;;;;;;5044468;28;20040;-79
2022/07/09 07:55:49;;;;;;;5.57;1.42;;;19.70;99.90;;;;;;5014710;28;20054;-80
2022/07/09 07:58:15;;;;;;;5.32;1.55;;;19.70;99.90;;;;;;5029984;28;20135;-80
2022/07/09 08:00:40;;;;;;;4.38;1.27;;;19.90;99.90;;;;;;5038842;28;20126;-82
2022/07/09 08:03:06;;;;;;;5.30;1.33;;;20.20;99.90;;;;;;5058078;28;20574;-82
2022/07/09 08:05:32;;;;;;;4.28;1.15;;;20.40;99.90;;;;;;5049490;28;20048;-80
2022/07/09 08:07:58;;;;;;;3.83;1.40;;;20.50;99.90;;;;;;5040628;28;20077;-79
2022/07/09 08:10:25;;;;;;;4.68;1.20;;;20.70;99.90;;;;;;5059102;28;20550;-80
2022/07/09 08:12:51;;;;;;;4.18;1.23;;;20.80;99.90;;;;;;5047349;28;20060;-81
2022/07/09 08:15:17;;;;;;;3.00;1.15;;;20.80;99.90;;;;;;5050932;28;20040;-81
2022/07/09 08:17:44;;;;;;;5.28;1.50;;;21.00;99.90;;;;;;5032691;28;20532;-80
2022/07/09 08:20:10;;;;;;;5.82;1.52;;;21.30;99.90;;;;;;5027835;28;20506;-80
2022/07/09 08:22:36;;;;;;;5.63;1.30;;;21.40;99.90;;;;;;5063753;28;20767;-80
2022/07/09 08:25:02;;;;;;;6.43;1.60;;;21.30;99.90;;;;;;5046454;28;20059;-80
2022/07/09 08:27:28;;;;;;;4.13;1.30;;;21.30;99.90;;;;;;5061508;28;20528;-80
2022/07/09 08:29:54;;;;;;;5.88;1.38;;;21.20;99.90;;;;;;5045703;28;20139;-81
2022/07/09 08:32:20;;;;;;;4.57;1.42;;;21.10;99.90;;;;;;5013375;28;20048;-81
2022/07/09 08:34:45;;;;;;;5.95;1.90;;;21.00;99.90;;;;;;5029855;28;20126;-80
2022/07/09 08:37:11;;;;;;;9.13;1.38;;;21.00;99.90;;;;;;5044801;28;20052;-80
2022/07/09 08:39:37;;;;;;;4.38;1.15;;;20.90;99.90;;;;;;5029448;28;20048;-81
2022/07/09 08:42:10;;;;;;;4.82;1.27;;;20.80;99.90;;;;;;5062765;28;20051;-80
2022/07/09 08:44:38;;;;;;;4.32;1.30;;;20.70;99.90;;;;;;5046516;28;20056;-80
2022/07/09 08:47:05;;;;;;;3.88;1.20;;;20.70;99.90;;;;;;5029352;28;20063;-80
2022/07/09 08:49:31;;;;;;;3.90;1.30;;;20.80;99.90;;;;;;5045524;28;20064;-80
2022/07/09 08:51:58;;;;;;;6.38;1.90;;;20.80;99.90;;;;;;5046499;28;20052;-81
2022/07/09 08:54:24;;;;;;;5.57;1.60;;;20.90;99.90;;;;;;5044994;28;20059;-80
2022/07/09 08:56:51;;;;;;;4.65;1.33;;;20.80;99.90;;;;;;5046298;28;20048;-81
2022/07/09 08:59:17;;;;;;;8.18;1.88;;;20.80;99.90;;;;;;5046111;28;20056;-81
2022/07/09 09:01:42;;;;;;;7.78;1.73;;;20.90;99.90;;;;;;5030269;28;20047;-81
2022/07/09 09:04:09;;;;;;;5.03;1.45;;;21.00;99.90;;;;;;5045435;28;20055;-82
2022/07/09 09:06:39;;;;;;;11.45;1.55;;;21.20;99.90;;;;;;5027650;28;20082;-81
2022/07/09 09:09:08;;;;;;;6.10;1.45;;;21.20;99.90;;;;;;5029345;28;20126;-82
2022/07/09 09:11:36;;;;;;;5.50;1.27;;;21.20;99.90;;;;;;5069867;28;20059;-81
2022/07/09 09:14:02;;;;;;;3.58;1.40;;;21.30;99.90;;;;;;5047284;28;20051;-81
2022/07/09 09:16:29;;;;;;;4.15;1.35;;;21.40;99.90;;;;;;5046608;28;20041;-82
2022/07/09 09:18:56;;;;;;;6.43;1.23;;;21.50;99.90;;;;;;5030253;28;20041;-82
2022/07/09 09:21:26;;;;;;;4.82;1.08;;;21.50;99.90;;;;;;5032062;28;20035;-82
2022/07/09 09:23:53;;;;;;;5.85;1.30;;;21.40;99.90;;;;;;5054841;28;20055;-81
2022/07/09 09:26:24;;;;;;;6.72;1.40;;;21.40;99.90;;;;;;5061252;28;20213;-81
2022/07/09 09:29:00;;;;;;;3.22;1.42;;;21.30;99.90;;;;;;5062740;28;20067;-82
2022/07/09 09:31:33;;;;;;;4.00;1.30;;;21.30;99.90;;;;;;5044317;28;20406;-81
2022/07/09 09:34:08;;;;;;;8.73;1.50;;;21.40;99.90;;;;;;5044708;28;20052;-82
2022/07/09 09:36:38;;;;;;;4.87;1.57;;;21.30;99.90;;;;;;5062750;28;20498;-82
2022/07/09 09:39:11;;;;;;;4.85;1.58;;;21.10;99.90;;;;;;5037749;28;20792;-83
2022/07/09 09:41:37;;;;;;;8.38;3.10;;;21.00;99.90;;;;;;5071651;28;20044;-82
2022/07/09 09:44:09;;;;;;;7.60;2.60;;;20.90;99.90;;;;;;5044253;28;20051;-82
2022/07/09 09:46:47;;;;;;;5.05;1.65;;;20.90;99.90;;;;;;5056744;28;20086;-82
2022/07/09 09:49:22;;;;;;;6.32;1.75;;;20.90;99.90;;;;;;5050323;28;20255;-82
2022/07/09 09:52:21;;;;;;;7.38;1.90;;;21.20;99.90;;;;;;5066273;28;20036;-84
2022/07/09 09:54:57;;;;;;;4.63;1.90;;;21.40;99.90;;;;;;5061475;28;20052;-82
2022/07/09 09:57:26;;;;;;;5.10;1.77;;;21.60;99.90;;;;;;5043900;28;20399;-83
2022/07/09 09:59:53;;;;;;;9.10;1.90;;;21.60;99.90;;;;;;5045010;28;20133;-82
2022/07/09 10:02:20;;;;;;;5.93;1.67;;;21.60;99.90;;;;;;5028405;28;20966;-83
2022/07/09 10:04:46;;;;;;;7.22;1.73;;;21.70;99.90;;;;;;5028370;28;20131;-83
2022/07/09 10:07:14;;;;;;;7.85;1.73;;;22.00;99.90;;;;;;5044488;28;20126;-82
2022/07/09 10:09:40;;;;;;;4.10;1.33;;;22.30;99.90;;;;;;5062183;28;20534;-83
2022/07/09 10:12:09;;;;;;;6.50;1.50;;;22.40;99.90;;;;;;5060915;28;20051;-81
2022/07/09 10:14:37;;;;;;;6.70;1.50;;;22.40;99.90;;;;;;5028439;28;20129;-80
2022/07/09 10:17:09;;;;;;;4.05;1.30;;;22.30;99.90;;;;;;5028227;28;20109;-81
2022/07/09 10:19:36;;;;;;;4.05;1.30;;;22.30;99.90;;;;;;5043930;28;20049;-81
2022/07/09 10:22:02;;;;;;;3.72;1.30;;;22.20;99.90;;;;;;5035243;28;20094;-80
2022/07/09 10:24:29;;;;;;;7.72;1.33;;;22.10;99.90;;;;;;5027868;28;20052;-80
2022/07/09 10:27:11;;;;;;;6.22;1.52;;;22.00;99.90;;;;;;5061462;28;20109;-81
2022/07/09 10:29:58;;;;;;;5.97;1.58;;;21.90;99.90;;;;;;5060719;28;20053;-80
2022/07/09 10:32:35;;;;;;;6.13;1.70;;;21.90;99.90;;;;;;5059874;28;20158;-81
2022/07/09 10:35:05;;;;;;;3.58;1.17;;;21.90;99.90;;;;;;5044526;28;20376;-81
2022/07/09 10:37:44;;;;;;;5.70;1.20;;;22.10;99.90;;;;;;5059927;28;20040;-80
2022/07/09 10:40:14;;;;;;;5.13;1.13;;;22.20;99.90;;;;;;5045116;28;20128;-81
2022/07/09 10:42:42;;;;;;;5.45;1.15;;;22.50;99.90;;;;;;5052145;28;20624;-81
2022/07/09 10:45:21;;;;;;;3.70;1.20;;;22.60;99.90;;;;;;5027031;28;20148;-81
2022/07/09 10:47:52;;;;;;;4.45;1.15;;;22.70;99.90;;;;;;5060518;28;20495;-81
2022/07/09 10:50:18;;;;;;;6.18;1.33;;;22.80;99.90;;;;;;5042545;28;20861;-82
2022/07/09 10:52:45;;;;;;;3.70;0.82;;;22.90;99.90;;;;;;5044802;28;20051;-81
2022/07/09 10:55:11;;;;;;;5.70;1.90;;;23.00;99.90;;;;;;5027889;28;20044;-81
2022/07/09 10:57:36;;;;;;;5.75;1.73;;;23.20;99.90;;;;;;5026578;28;20090;-81
2022/07/09 11:00:03;;;;;;;4.63;0.95;;;23.30;99.90;;;;;;5027543;28;20398;-81
2022/07/09 11:02:29;;;;;;;5.03;1.13;;;23.30;99.90;;;;;;5025503;28;20040;-81
2022/07/09 11:04:55;;;;;;;5.68;1.02;;;23.40;99.90;;;;;;5044090;28;20055;-81
2022/07/09 11:07:25;;;;;;;2.35;0.93;;;23.80;99.90;;;;;;5027308;28;20086;-82
2022/07/09 11:09:52;;;;;;;3.83;1.10;;;24.10;99.90;;;;;;5028055;28;20056;-82
2022/07/09 11:12:19;;;;;;;6.68;1.45;;;24.10;99.90;;;;;;5027496;28;20048;-82
2022/07/09 11:14:46;;;;;;;2.47;1.08;;;24.20;99.90;;;;;;5044795;28;20040;-81
2022/07/09 11:17:20;;;;;;;4.18;1.10;;;24.40;99.90;;;;;;5028297;28;20131;-80
2022/07/09 11:19:47;;;;;;;3.92;1.20;;;24.50;99.90;;;;;;5043346;28;20099;-82
2022/07/09 11:22:15;;;;;;;2.55;0.88;;;24.80;99.90;;;;;;5060644;28;20040;-81
2022/07/09 11:24:41;;;;;;;4.00;1.08;;;25.10;99.70;;;;;;5026944;28;20060;-81
2022/07/09 11:27:08;;;;;;;6.10;1.10;;;25.30;99.60;;;;;;5045902;28;20090;-81
2022/07/09 11:29:37;;;;;;;2.97;0.80;;;25.20;99.00;;;;;;5052409;28;20067;-82
2022/07/09 11:32:04;;;;;;;3.58;0.80;;;25.20;98.40;;;;;;5050140;28;20077;-82
2022/07/09 11:34:30;;;;;;;3.20;0.80;;;25.20;98.50;;;;;;5061515;28;20045;-82
2022/07/09 11:36:58;;;;;;;2.95;0.90;;;25.30;97.80;;;;;;5050901;28;20563;-83
2022/07/09 11:39:29;;;;;;;3.42;1.10;;;25.50;97.40;;;;;;5059803;28;20094;-83
2022/07/09 11:41:57;;;;;;;1.88;0.80;;;25.70;95.70;;;;;;5043963;28;20048;-82
2022/07/09 11:44:26;;;;;;;3.80;1.10;;;25.80;95.60;;;;;;5050849;28;20044;-83
2022/07/09 11:47:15;;;;;;;2.72;1.20;;;25.80;95.10;;;;;;5060892;28;20075;-82
2022/07/09 11:49:43;;;;;;;5.07;1.05;;;26.00;93.40;;;;;;5045693;28;20049;-82
2022/07/09 11:52:24;;;;;;;3.03;1.00;;;26.20;94.20;;;;;;5064023;28;20056;-83
2022/07/09 11:54:57;;;;;;;3.92;1.20;;;26.30;92.50;;;;;;5047108;28;20041;-82
2022/07/09 11:57:23;;;;;;;2.25;0.88;;;26.30;91.70;;;;;;5046949;28;20765;-82
2022/07/09 11:59:49;;;;;;;4.03;0.98;;;26.50;93.60;;;;;;5029764;28;20130;-83
2022/07/09 12:02:36;;;;;;;3.17;1.30;;;26.60;92.90;;;;;;5064703;28;20636;-82
2022/07/09 12:05:05;;;;;;;3.42;1.00;;;26.50;89.60;;;;;;5047422;28;20048;-82
2022/07/09 12:07:31;;;;;;;3.50;0.90;;;26.30;91.40;;;;;;5046652;28;20163;-83
2022/07/09 12:09:58;;;;;;;3.17;0.90;;;26.40;91.70;;;;;;5064210;28;20180;-82
2022/07/09 12:12:24;;;;;;;3.45;1.00;;;26.30;91.20;;;;;;5062808;28;20177;-83
2022/07/09 12:14:50;;;;;;;2.83;1.10;;;26.10;90.90;;;;;;5015318;28;20052;-82
2022/07/09 12:17:27;;;;;;;3.85;1.30;;;26.10;91.40;;;;;;5047208;28;20062;-82
2022/07/09 12:19:54;;;;;;;3.53;1.02;;;26.30;91.10;;;;;;5063382;28;20419;-82
2022/07/09 12:22:20;;;;;;;2.88;1.00;;;26.40;90.90;;;;;;5030548;28;20044;-83
2022/07/09 12:24:47;;;;;;;4.22;1.00;;;26.40;91.00;;;;;;5061946;28;20041;-82
2022/07/09 12:27:13;;;;;;;4.43;1.20;;;26.60;91.40;;;;;;5054219;28;20060;-83
2022/07/09 12:29:39;;;;;;;2.17;0.77;;;26.80;91.00;;;;;;5046082;28;20055;-83
2022/07/09 12:32:05;;;;;;;3.15;0.80;;;27.00;90.30;;;;;;5047204;28;20052;-82
2022/07/09 12:34:31;;;;;;;3.85;0.85;;;26.90;90.10;;;;;;5045364;28;20549;-83
2022/07/09 12:36:57;;;;;;;3.58;0.88;;;26.90;90.10;;;;;;5062745;28;20051;-82
2022/07/09 12:39:23;;;;;;;3.20;0.90;;;26.70;88.50;;;;;;5045547;28;20048;-83
2022/07/09 12:41:49;;;;;;;2.97;0.98;;;26.70;90.00;;;;;;5045607;28;20087;-83
2022/07/09 12:44:15;;;;;;;4.40;0.80;;;26.70;88.50;;;;;;5047073;28;20053;-83
2022/07/09 12:46:41;;;;;;;3.00;0.85;;;26.80;88.90;;;;;;5045824;28;20049;-83